createdAt,value
2022-09-20T00:01:49.929Z,69.97
2022-09-20T00:06:51.209Z,70.02
2022-09-20T00:11:52.856Z,70.94
2022-09-20T00:16:54.461Z,72.54
2022-09-20T00:21:55.795Z,72.01
2022-09-20T00:26:57.186Z,72.23
2022-09-20T00:31:58.449Z,72.04
2022-09-20T00:36:59.820Z,72.11
2022-09-20T00:42:01.172Z,72.26
2022-09-20T00:47:03.629Z,72.92
2022-09-20T00:52:04.913Z,72.61
2022-09-20T00:57:06.364Z,72.53
2022-09-20T01:02:20.080Z,72.96
2022-09-20T01:07:22.395Z,73.91
2022-09-20T01:12:29.119Z,73.45
2022-09-20T01:17:34.689Z,73.87
2022-09-20T01:22:52.794Z,74.23
2022-09-20T01:27:54.886Z,74.37
2022-09-20T01:32:56.098Z,73.95
2022-09-20T01:38:35.072Z,73.28
2022-09-20T01:43:51.969Z,75.48
2022-09-20T01:49:03.818Z,74.43
2022-09-20T01:54:26.552Z,75.02
2022-09-20T01:59:49.062Z,74.69
2022-09-20T02:04:59.789Z,74.30
2022-09-20T02:10:19.612Z,74.37
2022-09-20T02:15:38.953Z,74.12
2022-09-20T02:21:00.434Z,73.99
2022-09-20T02:26:15.033Z,74.66
2022-09-20T02:31:36.483Z,75.50
2022-09-20T02:37:04.432Z,75.82
2022-09-20T02:42:17.886Z,75.40
2022-09-20T02:47:27.806Z,75.43
2022-09-20T02:52:43.209Z,75.79
2022-09-20T02:58:18.819Z,76.10
2022-09-20T03:03:57.335Z,76.37
2022-09-20T03:09:25.766Z,75.97
2022-09-20T03:14:33.844Z,76.30
2022-09-20T03:20:06.747Z,76.42
2022-09-20T03:25:39.196Z,76.56
2022-09-20T03:31:00.578Z,76.28
2022-09-20T03:36:29.510Z,76.45
2022-09-20T03:42:23.777Z,76.33
2022-09-20T03:47:54.441Z,76.53
2022-09-20T03:53:34.061Z,76.42
2022-09-20T03:58:56.330Z,75.93
2022-09-20T04:04:11.875Z,75.57
2022-09-20T04:09:41.916Z,75.21
2022-09-20T04:14:54.326Z,74.87
2022-09-20T04:20:05.705Z,74.71
2022-09-20T04:25:17.176Z,73.42
2022-09-20T04:30:22.628Z,73.64
2022-09-20T04:35:59.435Z,73.79
2022-09-20T04:41:20.554Z,73.56
2022-09-20T04:46:55.932Z,73.78
2022-09-20T04:52:31.933Z,74.80
2022-09-20T04:58:12.470Z,76.03
2022-09-20T05:03:58.931Z,76.26
2022-09-20T05:09:42.738Z,75.90
2022-09-20T05:14:53.845Z,75.22
2022-09-20T05:20:25.151Z,74.91
2022-09-20T05:25:52.123Z,74.03
2022-09-20T05:31:00.346Z,73.68
2022-09-20T05:36:14.569Z,73.32
2022-09-20T05:41:42.082Z,73.10
2022-09-20T05:47:11.374Z,73.24
2022-09-20T05:52:53.511Z,73.52
2022-09-20T05:58:10.040Z,73.05
2022-09-20T06:03:24.358Z,73.78
2022-09-20T06:08:40.773Z,73.97
2022-09-20T06:13:49.799Z,73.68
2022-09-20T06:19:19.131Z,73.62
2022-09-20T06:24:32.526Z,73.14
2022-09-20T06:29:38.494Z,72.54
2022-09-20T06:34:39.829Z,72.38
2022-09-20T06:40:04.347Z,72.49
2022-09-20T06:45:06.000Z,71.87
2022-09-20T06:50:14.960Z,71.39
2022-09-20T06:55:22.119Z,71.75
2022-09-20T07:00:25.465Z,71.54
2022-09-20T07:05:26.840Z,71.81
2022-09-20T07:10:28.695Z,70.68
2022-09-20T07:15:32.431Z,71.36
2022-09-20T07:20:33.937Z,70.56
2022-09-20T07:25:36.532Z,68.96
2022-09-20T07:30:39.014Z,68.84
2022-09-20T07:35:41.544Z,69.31
2022-09-20T07:40:43.141Z,68.69
2022-09-20T07:45:44.585Z,69.47
2022-09-20T07:50:53.848Z,69.30
2022-09-20T07:56:11.351Z,66.30
2022-09-20T08:01:13.305Z,64.48
2022-09-20T08:06:16.339Z,62.54
2022-09-20T08:11:20.151Z,63.05
2022-09-20T08:16:21.674Z,60.72
2022-09-20T08:21:24.780Z,59.50
2022-09-20T08:26:28.121Z,59.99
2022-09-20T08:31:35.309Z,57.34
2022-09-20T08:36:41.100Z,56.76
2022-09-20T08:41:48.150Z,53.38
2022-09-20T08:46:54.866Z,51.15
2022-09-20T08:51:58.295Z,51.26
2022-09-20T08:57:20.501Z,50.77
2022-09-20T09:02:22.634Z,50.70
2022-09-20T09:07:25.206Z,50.49
2022-09-20T09:12:30.280Z,51.31
2022-09-20T09:17:31.623Z,52.01
2022-09-20T09:22:41.125Z,49.73
2022-09-20T09:27:54.766Z,49.37
2022-09-20T09:33:27.867Z,49.37
2022-09-20T09:38:31.598Z,47.24
2022-09-20T09:43:37.198Z,42.84
2022-09-20T09:48:40.277Z,40.48
2022-09-20T09:53:43.188Z,39.92
2022-09-20T09:58:58.896Z,42.59
2022-09-20T10:04:12.062Z,43.16
2022-09-20T10:09:42.537Z,40.09
2022-09-20T10:14:53.014Z,32.00
2022-09-20T10:20:20.069Z,30.28
2022-09-20T10:25:39.917Z,31.45
2022-09-20T10:31:13.552Z,29.15
2022-09-20T10:36:40.085Z,25.84
2022-09-20T10:42:47.106Z,27.59
2022-09-20T10:48:18.268Z,31.38
2022-09-20T10:53:43.647Z,34.80
2022-09-20T10:58:54.340Z,22.45
2022-09-20T11:04:26.805Z,18.31
2022-09-20T11:09:35.730Z,16.24
2022-09-20T11:15:08.371Z,14.00
2022-09-20T11:20:20.949Z,14.75
2022-09-20T11:25:45.602Z,18.77
2022-09-20T11:31:09.720Z,24.77
2022-09-20T11:36:19.026Z,30.78
2022-09-20T11:41:26.380Z,35.12
2022-09-20T11:46:36.925Z,39.34
2022-09-20T11:52:15.665Z,41.38
2022-09-20T11:57:17.074Z,42.03
2022-09-20T12:02:43.117Z,41.89
2022-09-20T12:07:44.559Z,40.81
2022-09-20T12:12:54.706Z,24.82
2022-09-20T12:17:55.926Z,19.10
2022-09-20T12:23:42.195Z,18.33
2022-09-20T12:28:49.923Z,21.42
2022-09-20T12:34:10.006Z,27.54
2022-09-20T12:39:11.304Z,32.32
2022-09-20T12:44:41.796Z,37.23
2022-09-20T12:50:04.920Z,40.47
2022-09-20T12:55:10.993Z,41.24
2022-09-20T13:00:32.114Z,41.32
2022-09-20T13:05:42.381Z,41.94
2022-09-20T13:10:50.003Z,31.22
2022-09-20T13:15:53.531Z,21.52
2022-09-20T13:20:56.768Z,19.80
2022-09-20T13:25:58.261Z,20.19
2022-09-20T13:31:26.891Z,19.66
2022-09-20T13:36:30.061Z,23.93
2022-09-20T13:41:32.437Z,27.62
2022-09-20T13:46:33.710Z,30.08
2022-09-20T13:51:35.395Z,31.66
2022-09-20T13:56:37.829Z,30.87
2022-09-20T14:01:44.192Z,31.81
2022-09-20T14:06:45.821Z,33.87
2022-09-20T14:11:47.313Z,35.00
2022-09-20T14:16:50.317Z,36.50
2022-09-20T14:21:51.990Z,37.09
2022-09-20T14:27:03.685Z,38.55
2022-09-20T14:32:14.960Z,38.19
2022-09-20T14:37:40.926Z,39.31
2022-09-20T14:42:46.262Z,39.58
2022-09-20T14:47:55.326Z,40.25
2022-09-20T14:53:21.405Z,39.76
2022-09-20T14:58:24.658Z,40.69
2022-09-20T15:03:32.885Z,39.80
2022-09-20T15:08:35.242Z,40.78
2022-09-20T15:13:36.660Z,41.80
2022-09-20T15:18:42.715Z,42.09
2022-09-20T15:23:44.046Z,42.94
2022-09-20T15:28:45.564Z,43.50
2022-09-20T15:33:46.847Z,44.46
2022-09-20T15:38:48.184Z,43.89
2022-09-20T15:43:50.193Z,42.72
2022-09-20T15:48:51.434Z,42.67
2022-09-20T15:53:58.088Z,43.46
2022-09-20T15:59:05.283Z,44.83
2022-09-20T16:04:08.645Z,44.87
2022-09-20T16:09:10.747Z,43.89
2022-09-20T16:14:12.003Z,44.93
2022-09-20T16:19:22.260Z,46.50
2022-09-20T16:24:25.971Z,46.35
2022-09-20T16:29:29.779Z,47.16
2022-09-20T16:34:34.705Z,47.64
2022-09-20T16:39:36.100Z,47.50
2022-09-20T16:44:39.244Z,47.46
2022-09-20T16:49:41.048Z,48.23
2022-09-20T16:54:42.611Z,47.63
2022-09-20T16:59:44.294Z,47.89
2022-09-20T17:04:45.613Z,49.17
2022-09-20T17:09:46.953Z,52.36
2022-09-20T17:14:48.302Z,53.13
2022-09-20T17:19:49.589Z,50.31
2022-09-20T17:24:50.924Z,50.63
2022-09-20T17:29:52.350Z,49.79
2022-09-20T17:34:53.609Z,51.54
2022-09-20T17:39:54.858Z,52.10
2022-09-20T17:44:56.101Z,52.19
2022-09-20T17:49:57.357Z,52.30
2022-09-20T17:54:58.623Z,51.08
2022-09-20T17:59:59.903Z,53.16
2022-09-20T18:05:01.272Z,53.27
2022-09-20T18:10:02.591Z,53.01
2022-09-20T18:15:04.367Z,52.80
2022-09-20T18:20:06.186Z,53.07
2022-09-20T18:25:07.815Z,53.18
2022-09-20T18:30:09.762Z,52.77
2022-09-20T18:35:11.120Z,53.26
2022-09-20T18:40:12.410Z,53.82
2022-09-20T18:45:14.365Z,53.68
2022-09-20T18:50:15.619Z,54.37
2022-09-20T18:55:17.101Z,54.50
2022-09-20T19:00:18.677Z,54.99
2022-09-20T19:05:28.083Z,54.69
2022-09-20T19:10:48.516Z,54.02
2022-09-20T19:15:56.296Z,54.06
2022-09-20T19:21:06.748Z,54.55
2022-09-20T19:26:23.825Z,54.91
2022-09-20T19:31:33.819Z,55.34
2022-09-20T19:36:57.294Z,55.77
2022-09-20T19:42:19.928Z,56.34
2022-09-20T19:47:39.333Z,56.80
2022-09-20T19:52:41.219Z,56.30
2022-09-20T19:57:46.904Z,56.38
2022-09-20T20:02:49.007Z,56.94
2022-09-20T20:08:07.838Z,56.73
2022-09-20T20:13:51.133Z,56.88
2022-09-20T20:19:11.863Z,57.38
2022-09-20T20:24:25.699Z,57.69
2022-09-20T20:29:26.987Z,58.02
2022-09-20T20:34:28.221Z,58.12
2022-09-20T20:39:31.491Z,58.58
2022-09-20T20:44:36.614Z,59.71
2022-09-20T20:49:38.695Z,61.89
2022-09-20T20:54:39.945Z,63.27
2022-09-20T20:59:41.253Z,63.90
2022-09-20T21:04:42.729Z,64.83
2022-09-20T21:09:44.139Z,65.24
2022-09-20T21:14:45.482Z,65.79
2022-09-20T21:19:46.763Z,65.93
2022-09-20T21:24:48.110Z,66.41
2022-09-20T21:29:49.423Z,66.84
2022-09-20T21:34:50.800Z,67.02
2022-09-20T21:39:54.313Z,66.71
2022-09-20T21:44:56.226Z,66.96
2022-09-20T21:49:57.513Z,67.24
2022-09-20T21:54:59.024Z,68.65
2022-09-20T22:00:00.610Z,67.56
2022-09-20T22:05:02.783Z,68.69
2022-09-20T22:10:04.515Z,68.38
2022-09-20T22:15:06.498Z,68.51
2022-09-20T22:20:08.247Z,69.22
2022-09-20T22:25:09.708Z,69.02
2022-09-20T22:30:11.829Z,69.13
2022-09-20T22:35:14.220Z,69.56
2022-09-20T22:40:15.670Z,70.60
2022-09-20T22:45:17.010Z,70.27
2022-09-20T22:50:18.422Z,71.02
2022-09-20T22:55:19.659Z,71.68
2022-09-20T23:00:20.916Z,72.73
2022-09-20T23:05:22.297Z,73.41
2022-09-20T23:10:24.042Z,74.52
2022-09-20T23:15:25.287Z,74.43
2022-09-20T23:20:26.582Z,75.30
2022-09-20T23:25:27.980Z,73.79
2022-09-20T23:30:31.846Z,73.50
2022-09-20T23:35:34.050Z,74.25
2022-09-20T23:40:35.358Z,74.49
2022-09-20T23:45:36.698Z,73.62
2022-09-20T23:50:37.992Z,74.00
2022-09-20T23:55:39.348Z,74.85
